createdAt,value
2018-08-25T00:01:03.534Z,6.60
2018-08-25T00:03:33.032Z,6.30
2018-08-25T00:06:02.907Z,5.62
2018-08-25T00:08:33.641Z,5.78
2018-08-25T00:11:04.680Z,6.60
2018-08-25T00:13:34.448Z,6.18
2018-08-25T00:16:05.252Z,6.10
2018-08-25T00:18:35.094Z,6.80
2018-08-25T00:21:04.476Z,7.05
2018-08-25T00:23:33.732Z,7.32
2018-08-25T00:26:03.241Z,6.93
2018-08-25T00:28:32.641Z,7.05
2018-08-25T00:31:02.664Z,7.35
2018-08-25T00:33:33.778Z,6.90
2018-08-25T00:36:03.136Z,6.75
2018-08-25T00:38:32.686Z,7.05
2018-08-25T00:41:02.283Z,6.72
2018-08-25T00:43:32.030Z,6.20
2018-08-25T00:46:01.578Z,6.55
2018-08-25T00:48:31.017Z,6.47
2018-08-25T00:51:00.331Z,6.05
2018-08-25T00:53:30.059Z,5.90
2018-08-25T00:55:59.598Z,6.40
2018-08-25T00:58:29.740Z,6.37
2018-08-25T01:01:00.416Z,7.20
2018-08-25T01:03:29.721Z,7.28
2018-08-25T01:05:59.297Z,6.90
2018-08-25T01:08:29.190Z,7.60
2018-08-25T01:11:01.898Z,7.87
2018-08-25T01:13:31.271Z,7.72
2018-08-25T01:16:00.815Z,7.43
2018-08-25T01:18:30.455Z,6.50
2018-08-25T01:21:02.809Z,6.62
2018-08-25T01:23:32.447Z,6.47
2018-08-25T01:26:03.144Z,6.12
2018-08-25T01:28:32.537Z,6.32
2018-08-25T01:31:02.260Z,6.55
2018-08-25T01:33:32.120Z,6.85
2018-08-25T01:36:01.733Z,6.30
2018-08-25T01:38:31.186Z,6.70
2018-08-25T01:41:00.855Z,6.90
2018-08-25T01:43:30.427Z,6.85
2018-08-25T01:45:59.991Z,6.97
2018-08-25T01:48:29.725Z,7.00
2018-08-25T01:50:59.298Z,6.65
2018-08-25T01:53:29.051Z,7.90
2018-08-25T01:56:00.725Z,7.40
2018-08-25T01:58:30.404Z,8.07
2018-08-25T02:00:59.887Z,7.50
2018-08-25T02:03:29.717Z,7.35
2018-08-25T02:05:59.240Z,7.78
2018-08-25T02:08:42.136Z,7.43
2018-08-25T02:11:12.416Z,7.80
2018-08-25T02:13:42.488Z,8.10
2018-08-25T02:16:15.676Z,8.02
2018-08-25T02:18:45.340Z,8.07
2018-08-25T02:21:14.988Z,8.23
2018-08-25T02:23:44.805Z,8.32
2018-08-25T02:26:14.352Z,7.90
2018-08-25T02:28:43.835Z,9.45
2018-08-25T02:31:13.416Z,9.15
2018-08-25T02:33:42.851Z,8.73
2018-08-25T02:36:12.705Z,8.93
2018-08-25T02:38:44.291Z,8.55
2018-08-25T02:41:13.708Z,7.82
2018-08-25T02:43:43.962Z,8.45
2018-08-25T02:46:13.471Z,9.15
2018-08-25T02:48:42.834Z,8.90
2018-08-25T02:51:16.369Z,9.35
2018-08-25T02:53:45.645Z,9.32
2018-08-25T02:56:15.194Z,9.70
2018-08-25T02:58:44.709Z,9.25
2018-08-25T03:01:13.895Z,9.52
2018-08-25T03:03:43.219Z,9.73
2018-08-25T03:06:12.737Z,9.80
2018-08-25T03:08:42.685Z,9.70
2018-08-25T03:11:12.304Z,9.05
2018-08-25T03:13:42.115Z,9.40
2018-08-25T03:16:12.151Z,9.27
2018-08-25T03:18:43.901Z,9.35
2018-08-25T03:21:13.471Z,9.18
2018-08-25T03:23:42.825Z,8.60
2018-08-25T03:26:12.441Z,8.68
2018-08-25T03:28:41.792Z,9.07
2018-08-25T03:31:11.137Z,8.73
2018-08-25T03:33:42.057Z,8.70
2018-08-25T03:36:11.232Z,9.07
2018-08-25T03:38:40.835Z,9.27
2018-08-25T03:41:10.169Z,9.38
2018-08-25T03:43:39.984Z,8.73
2018-08-25T03:46:10.118Z,9.93
2018-08-25T03:48:39.688Z,8.90
2018-08-25T03:51:09.192Z,8.98
2018-08-25T03:53:38.435Z,9.82
2018-08-25T03:56:07.693Z,9.05
2018-08-25T03:58:37.172Z,8.98
2018-08-25T04:01:07.433Z,8.95
2018-08-25T04:03:39.832Z,8.50
2018-08-25T04:06:10.876Z,8.43
2018-08-25T04:08:40.653Z,8.63
2018-08-25T04:11:10.071Z,8.63
2018-08-25T04:13:39.234Z,9.02
2018-08-25T04:16:08.871Z,8.85
2018-08-25T04:18:38.330Z,8.98
2018-08-25T04:21:08.584Z,9.65
2018-08-25T04:23:38.164Z,8.75
2018-08-25T04:26:07.601Z,9.05
2018-08-25T04:28:36.902Z,9.40
2018-08-25T04:31:06.291Z,9.10
2018-08-25T04:33:36.745Z,8.98
2018-08-25T04:36:06.317Z,9.05
2018-08-25T04:38:35.870Z,9.48
2018-08-25T04:41:05.204Z,9.00
2018-08-25T04:43:36.917Z,8.68
2018-08-25T04:46:08.422Z,8.75
2018-08-25T04:48:38.155Z,8.85
2018-08-25T04:51:08.420Z,10.18
2018-08-25T04:53:40.510Z,8.77
2018-08-25T04:56:10.717Z,9.13
2018-08-25T04:58:41.051Z,8.98
2018-08-25T05:01:10.658Z,9.68
2018-08-25T05:03:40.493Z,9.48
2018-08-25T05:06:09.901Z,9.13
2018-08-25T05:08:39.590Z,9.50
2018-08-25T05:11:09.224Z,9.27
2018-08-25T05:13:38.512Z,9.35
2018-08-25T05:16:08.722Z,9.32
2018-08-25T05:18:38.133Z,9.65
2018-08-25T05:21:07.838Z,9.50
2018-08-25T05:23:37.436Z,9.10
2018-08-25T05:26:07.085Z,9.23
2018-08-25T05:28:37.677Z,9.95
2018-08-25T05:31:08.012Z,9.07
2018-08-25T05:33:37.510Z,9.15
2018-08-25T05:36:06.940Z,10.02
2018-08-25T05:38:36.228Z,9.75
2018-08-25T05:41:05.397Z,9.82
2018-08-25T05:43:34.900Z,12.70
2018-08-25T05:46:06.064Z,13.00
2018-08-25T05:48:35.557Z,11.30
2018-08-25T05:51:04.966Z,11.40
2018-08-25T05:53:35.129Z,17.42
2018-08-25T05:56:04.802Z,16.85
2018-08-25T05:58:34.908Z,14.13
2018-08-25T06:01:04.531Z,10.60
2018-08-25T06:03:34.149Z,10.02
2018-08-25T06:06:03.779Z,10.43
2018-08-25T06:08:33.400Z,11.05
2018-08-25T06:11:06.292Z,10.55
2018-08-25T06:13:51.167Z,10.65
2018-08-25T06:16:21.187Z,10.38
2018-08-25T06:18:50.706Z,10.93
2018-08-25T06:21:20.460Z,10.63
2018-08-25T06:23:50.144Z,10.38
2018-08-25T06:26:20.429Z,10.25
2018-08-25T06:28:49.980Z,9.98
2018-08-25T06:31:20.223Z,9.75
2018-08-25T06:33:50.368Z,10.27
2018-08-25T06:36:20.116Z,10.55
2018-08-25T06:38:49.838Z,11.27
2018-08-25T06:41:19.424Z,11.50
2018-08-25T06:43:48.984Z,10.65
2018-08-25T06:46:18.815Z,9.95
2018-08-25T06:48:48.631Z,10.35
2018-08-25T06:51:18.635Z,10.20
2018-08-25T06:53:48.049Z,10.02
2018-08-25T06:56:17.471Z,10.32
2018-08-25T06:58:47.611Z,10.52
2018-08-25T07:01:17.034Z,10.50
2018-08-25T07:03:46.325Z,10.82
2018-08-25T07:06:17.353Z,11.05
2018-08-25T07:08:46.752Z,10.35
2018-08-25T07:11:17.500Z,10.77
2018-08-25T07:13:47.591Z,10.27
2018-08-25T07:16:17.191Z,10.32
2018-08-25T07:18:46.496Z,11.07
2018-08-25T07:21:16.061Z,11.27
2018-08-25T07:23:45.572Z,12.30
2018-08-25T07:26:15.049Z,12.07
2018-08-25T07:28:45.278Z,11.30
2018-08-25T07:31:14.949Z,14.27
2018-08-25T07:33:44.377Z,14.20
2018-08-25T07:36:14.684Z,14.45
2018-08-25T07:38:44.044Z,13.73
2018-08-25T07:41:13.470Z,14.77
2018-08-25T07:43:42.894Z,14.82
2018-08-25T07:46:12.409Z,15.82
2018-08-25T07:48:42.859Z,17.40
2018-08-25T07:51:12.582Z,17.05
2018-08-25T07:53:41.891Z,16.80
2018-08-25T07:56:11.302Z,16.65
2018-08-25T07:58:40.945Z,16.48
2018-08-25T08:01:10.524Z,17.37
2018-08-25T08:03:39.945Z,17.67
2018-08-25T08:06:10.309Z,17.25
2018-08-25T08:08:40.069Z,17.73
2018-08-25T08:11:10.009Z,17.50
2018-08-25T08:13:40.840Z,16.75
2018-08-25T08:16:10.228Z,17.23
2018-08-25T08:18:40.396Z,16.23
2018-08-25T08:21:10.177Z,17.40
2018-08-25T08:23:39.529Z,15.98
2018-08-25T08:26:10.118Z,14.80
2018-08-25T08:28:40.586Z,13.30
2018-08-25T08:31:10.310Z,13.73
2018-08-25T08:33:40.052Z,14.07
2018-08-25T08:36:10.941Z,14.05
2018-08-25T08:38:41.308Z,13.73
2018-08-25T08:41:10.723Z,14.57
2018-08-25T08:43:40.332Z,13.33
2018-08-25T08:46:09.604Z,16.10
2018-08-25T08:48:39.345Z,14.30
2018-08-25T08:51:09.556Z,13.37
2018-08-25T08:53:38.898Z,13.60
2018-08-25T08:56:08.368Z,14.57
2018-08-25T08:58:38.034Z,14.30
2018-08-25T09:01:07.585Z,13.95
2018-08-25T09:03:37.020Z,13.93
2018-08-25T09:06:06.896Z,13.35
2018-08-25T09:08:36.488Z,12.70
2018-08-25T09:11:05.986Z,12.90
2018-08-25T09:13:35.610Z,12.98
2018-08-25T09:16:06.384Z,14.52
2018-08-25T09:18:36.341Z,15.07
2018-08-25T09:21:06.168Z,13.38
2018-08-25T09:23:35.562Z,13.83
2018-08-25T09:26:05.297Z,14.33
2018-08-25T09:28:34.838Z,12.90
2018-08-25T09:31:04.513Z,12.98
2018-08-25T09:33:33.837Z,12.60
2018-08-25T09:36:04.317Z,12.75
2018-08-25T09:38:33.951Z,12.80
2018-08-25T09:41:03.396Z,12.90
2018-08-25T09:43:34.389Z,12.50
2018-08-25T09:46:04.039Z,12.30
2018-08-25T09:48:34.220Z,13.20
2018-08-25T09:51:04.027Z,12.67
2018-08-25T09:53:33.791Z,12.53
2018-08-25T09:56:03.065Z,12.70
2018-08-25T09:58:33.367Z,12.37
2018-08-25T10:01:02.850Z,12.17
2018-08-25T10:03:32.499Z,12.50
2018-08-25T10:06:02.822Z,13.33
2018-08-25T10:08:32.928Z,12.87
2018-08-25T10:11:02.642Z,12.63
2018-08-25T10:13:32.375Z,12.77
2018-08-25T10:16:01.929Z,13.30
2018-08-25T10:18:32.260Z,12.17
2018-08-25T10:21:01.802Z,13.00
2018-08-25T10:23:31.392Z,13.53
2018-08-25T10:26:00.997Z,12.35
2018-08-25T10:28:30.432Z,11.73
2018-08-25T10:30:59.915Z,12.50
2018-08-25T10:33:30.121Z,12.87
2018-08-25T10:35:59.530Z,12.60
2018-08-25T10:38:29.379Z,12.80
2018-08-25T10:40:59.373Z,13.70
2018-08-25T10:43:29.766Z,13.10
2018-08-25T10:45:59.064Z,13.67
2018-08-25T10:48:29.169Z,13.63
2018-08-25T10:50:58.501Z,14.10
2018-08-25T10:53:30.885Z,12.93
2018-08-25T10:56:00.601Z,13.53
2018-08-25T10:58:30.156Z,12.97
2018-08-25T11:01:02.994Z,14.40
2018-08-25T11:03:32.686Z,13.07
2018-08-25T11:06:03.200Z,14.15
2018-08-25T11:08:32.743Z,13.90
2018-08-25T11:11:03.468Z,13.67
2018-08-25T11:13:32.975Z,13.85
2018-08-25T11:16:02.632Z,13.98
2018-08-25T11:18:32.258Z,13.27
2018-08-25T11:21:01.535Z,14.00
2018-08-25T11:23:31.178Z,14.17
2018-08-25T11:26:00.560Z,14.33
2018-08-25T11:28:29.917Z,13.62
2018-08-25T11:31:00.313Z,14.73
2018-08-25T11:33:30.544Z,13.90
2018-08-25T11:36:00.887Z,13.47
2018-08-25T11:38:31.223Z,13.63
2018-08-25T11:41:01.329Z,13.53
2018-08-25T11:43:31.534Z,13.27
2018-08-25T11:46:00.908Z,12.50
2018-08-25T11:48:30.144Z,13.17
2018-08-25T11:51:00.235Z,13.00
2018-08-25T11:53:29.735Z,13.40
2018-08-25T11:55:59.409Z,13.37
2018-08-25T11:58:28.795Z,13.57
2018-08-25T12:00:59.108Z,12.77
2018-08-25T12:03:29.414Z,12.67
2018-08-25T12:05:59.311Z,12.30
2018-08-25T12:08:28.652Z,12.87
2018-08-25T12:10:58.521Z,12.30
2018-08-25T12:13:27.902Z,12.63
2018-08-25T12:15:57.446Z,12.63
2018-08-25T12:18:27.599Z,12.10
2018-08-25T12:20:57.986Z,12.07
2018-08-25T12:23:28.240Z,11.90
2018-08-25T12:25:58.037Z,11.40
2018-08-25T12:28:28.552Z,10.93
2018-08-25T12:30:57.761Z,11.17
2018-08-25T12:33:27.276Z,10.50
2018-08-25T12:35:57.149Z,10.60
2018-08-25T12:38:27.331Z,11.00
2018-08-25T12:40:57.313Z,11.07
2018-08-25T12:43:26.592Z,11.37
2018-08-25T12:45:56.035Z,11.33
2018-08-25T12:48:26.325Z,11.00
2018-08-25T12:50:55.813Z,11.50
2018-08-25T12:53:26.172Z,11.50
2018-08-25T12:55:55.481Z,11.60
2018-08-25T12:58:25.145Z,13.03
2018-08-25T13:00:54.909Z,11.80
2018-08-25T13:03:25.170Z,12.27
2018-08-25T13:05:54.382Z,12.30
2018-08-25T13:08:23.813Z,11.30
2018-08-25T13:10:53.528Z,11.77
2018-08-25T13:13:23.164Z,11.73
2018-08-25T13:15:52.753Z,11.73
2018-08-25T13:18:22.718Z,11.70
2018-08-25T13:20:52.291Z,11.35
2018-08-25T13:23:22.026Z,11.87
2018-08-25T13:25:51.603Z,11.67
2018-08-25T13:28:21.814Z,11.87
2018-08-25T13:30:51.625Z,12.13
2018-08-25T13:33:21.193Z,11.90
2018-08-25T13:35:50.860Z,12.17
2018-08-25T13:38:20.392Z,12.07
2018-08-25T13:40:49.791Z,11.93
2018-08-25T13:43:19.240Z,12.23
2018-08-25T13:45:49.204Z,11.73
2018-08-25T13:48:18.580Z,12.13
2018-08-25T13:50:48.668Z,12.60
2018-08-25T13:53:18.357Z,12.73
2018-08-25T13:55:48.038Z,11.98
2018-08-25T13:58:17.732Z,11.63
2018-08-25T14:00:47.327Z,13.07
2018-08-25T14:03:17.328Z,13.98
2018-08-25T14:05:46.859Z,15.17
2018-08-25T14:08:17.210Z,15.60
2018-08-25T14:10:46.845Z,17.70
2018-08-25T14:13:16.208Z,17.47
2018-08-25T14:15:45.744Z,14.77
2018-08-25T14:18:15.339Z,14.83
2018-08-25T14:20:45.464Z,14.02
2018-08-25T14:23:16.038Z,14.02
2018-08-25T14:25:45.323Z,12.35
2018-08-25T14:28:16.262Z,14.27
2018-08-25T14:30:45.869Z,16.33
2018-08-25T14:33:15.525Z,16.43
2018-08-25T14:35:44.913Z,14.80
2018-08-25T14:38:15.077Z,15.10
2018-08-25T14:40:44.640Z,16.75
2018-08-25T14:43:14.308Z,18.03
2018-08-25T14:45:43.772Z,17.50
2018-08-25T14:48:13.430Z,18.58
2018-08-25T14:50:42.670Z,18.17
2018-08-25T14:53:12.147Z,18.48
2018-08-25T14:55:42.098Z,18.50
2018-08-25T14:58:11.346Z,18.30
2018-08-25T15:00:41.002Z,19.73
2018-08-25T15:03:11.332Z,20.42
2018-08-25T15:05:40.910Z,20.58
2018-08-25T15:08:10.181Z,21.20
2018-08-25T15:10:39.602Z,20.65
2018-08-25T15:13:09.182Z,22.00
2018-08-25T15:15:38.480Z,21.40
2018-08-25T15:18:08.075Z,21.55
2018-08-25T15:20:37.392Z,21.05
2018-08-25T15:23:06.959Z,23.05
2018-08-25T15:25:37.944Z,22.55
2018-08-25T15:28:07.495Z,22.87
2018-08-25T15:30:36.868Z,24.48
2018-08-25T15:33:06.703Z,26.20
2018-08-25T15:35:35.975Z,28.10
2018-08-25T15:38:06.245Z,28.48
2018-08-25T15:40:35.866Z,28.70
2018-08-25T15:43:05.473Z,25.92
2018-08-25T15:45:35.301Z,27.50
2018-08-25T15:48:05.081Z,32.93
2018-08-25T15:50:34.534Z,38.95
2018-08-25T15:53:04.477Z,39.40
2018-08-25T15:55:34.011Z,38.63
2018-08-25T15:58:04.521Z,38.67
2018-08-25T16:00:34.429Z,40.53
2018-08-25T16:03:04.992Z,40.70
2018-08-25T16:05:35.541Z,42.10
2018-08-25T16:08:04.945Z,41.75
2018-08-25T16:10:35.267Z,41.33
2018-08-25T16:13:04.854Z,42.20
2018-08-25T16:15:34.281Z,42.38
2018-08-25T16:18:04.351Z,41.58
2018-08-25T16:20:34.904Z,42.70
2018-08-25T16:23:04.251Z,42.88
2018-08-25T16:25:33.752Z,43.90
2018-08-25T16:28:03.693Z,43.50
2018-08-25T16:30:33.285Z,44.47
2018-08-25T16:33:02.925Z,45.70
2018-08-25T16:35:33.502Z,46.13
2018-08-25T16:38:03.440Z,44.55
2018-08-25T16:40:33.258Z,44.13
2018-08-25T16:43:02.260Z,43.78
2018-08-25T16:45:32.861Z,45.30
2018-08-25T16:48:03.268Z,44.97
2018-08-25T16:50:33.443Z,43.75
2018-08-25T16:53:06.938Z,44.00
2018-08-25T16:55:37.378Z,43.83
2018-08-25T16:58:07.741Z,44.65
2018-08-25T17:00:37.068Z,42.38
2018-08-25T17:03:06.492Z,43.80
2018-08-25T17:05:36.017Z,43.17
2018-08-25T17:08:05.926Z,42.08
2018-08-25T17:10:35.396Z,45.20
2018-08-25T17:13:05.530Z,45.05
2018-08-25T17:15:35.864Z,44.80
2018-08-25T17:18:05.498Z,45.08
2018-08-25T17:20:35.184Z,47.10
2018-08-25T17:23:04.921Z,57.75
2018-08-25T17:25:34.347Z,47.65
2018-08-25T17:28:03.670Z,50.08
2018-08-25T17:30:33.569Z,50.60
2018-08-25T17:33:03.184Z,60.17
2018-08-25T17:35:32.880Z,62.40
2018-08-25T17:38:02.573Z,73.90
2018-08-25T17:40:31.966Z,66.60
2018-08-25T17:43:01.105Z,70.22
2018-08-25T17:45:31.061Z,72.53
2018-08-25T17:48:01.247Z,55.78
2018-08-25T17:50:30.836Z,58.47
2018-08-25T17:53:00.785Z,59.35
2018-08-25T17:55:30.407Z,67.05
2018-08-25T17:58:01.775Z,88.20
2018-08-25T18:00:31.260Z,76.65
2018-08-25T18:03:00.954Z,84.85
2018-08-25T18:05:30.296Z,96.15
2018-08-25T18:07:59.841Z,66.37
2018-08-25T18:10:29.624Z,83.50
2018-08-25T18:13:00.016Z,94.67
2018-08-25T18:15:29.900Z,81.20
2018-08-25T18:17:59.820Z,100.10
2018-08-25T18:20:29.572Z,85.78
2018-08-25T18:22:59.701Z,87.70
2018-08-25T18:25:29.279Z,90.23
2018-08-25T18:27:58.838Z,94.20
2018-08-25T18:30:29.337Z,95.27
2018-08-25T18:32:59.064Z,84.13
2018-08-25T18:35:29.857Z,112.37
2018-08-25T18:37:59.149Z,101.72
2018-08-25T18:40:28.754Z,106.67
2018-08-25T18:42:58.267Z,91.13
2018-08-25T18:45:28.557Z,111.00
2018-08-25T18:48:00.093Z,105.10
2018-08-25T18:50:30.407Z,111.12
2018-08-25T18:53:00.381Z,110.45
2018-08-25T18:55:30.115Z,108.60
2018-08-25T18:57:59.503Z,114.37
2018-08-25T19:00:30.814Z,114.22
2018-08-25T19:03:00.498Z,133.60
2018-08-25T19:05:29.950Z,138.60
2018-08-25T19:07:59.981Z,138.52
2018-08-25T19:10:29.707Z,322.60
2018-08-25T19:12:59.177Z,172.85
2018-08-25T19:15:29.627Z,137.40
2018-08-25T19:17:59.681Z,256.30
2018-08-25T19:20:29.666Z,214.27
2018-08-25T19:23:00.989Z,238.37
2018-08-25T19:25:30.445Z,218.63
2018-08-25T19:28:00.023Z,258.87
2018-08-25T19:30:30.446Z,259.33
2018-08-25T19:33:01.053Z,224.57
2018-08-25T19:35:30.593Z,212.52
2018-08-25T19:37:59.992Z,222.12
2018-08-25T19:40:30.514Z,232.50
2018-08-25T19:43:00.542Z,236.93
2018-08-25T19:45:29.957Z,242.50
2018-08-25T19:47:59.555Z,240.55
2018-08-25T19:50:29.044Z,219.23
2018-08-25T19:52:59.531Z,186.97
2018-08-25T19:55:28.888Z,201.77
2018-08-25T19:57:58.378Z,204.83
2018-08-25T20:00:28.604Z,243.77
2018-08-25T20:02:59.125Z,183.07
2018-08-25T20:05:28.674Z,205.73
2018-08-25T20:07:58.524Z,167.40
2018-08-25T20:10:27.938Z,172.13
2018-08-25T20:12:57.353Z,201.98
2018-08-25T20:15:27.734Z,178.12
2018-08-25T20:17:57.297Z,210.75
2018-08-25T20:20:26.927Z,154.33
2018-08-25T20:22:57.320Z,183.18
2018-08-25T20:25:27.248Z,166.87
2018-08-25T20:27:56.725Z,189.03
2018-08-25T20:30:26.413Z,183.32
2018-08-25T20:32:55.854Z,164.68
2018-08-25T20:35:25.174Z,187.30
2018-08-25T20:37:54.549Z,153.65
2018-08-25T20:40:24.044Z,175.15
2018-08-25T20:42:53.768Z,180.50
2018-08-25T20:45:23.468Z,181.73
2018-08-25T20:47:53.771Z,184.35
2018-08-25T20:50:23.520Z,202.37
2018-08-25T20:52:54.236Z,197.80
2018-08-25T20:55:23.844Z,154.80
2018-08-25T20:57:53.840Z,233.18
2018-08-25T21:00:23.510Z,250.20
2018-08-25T21:02:56.347Z,217.00
2018-08-25T21:05:26.086Z,193.52
2018-08-25T21:07:56.489Z,230.43
2018-08-25T21:10:26.224Z,237.90
2018-08-25T21:12:56.695Z,228.70
2018-08-25T21:15:26.441Z,240.30
2018-08-25T21:17:56.169Z,204.27
2018-08-25T21:20:25.887Z,159.87
2018-08-25T21:22:56.147Z,120.03
2018-08-25T21:25:25.610Z,136.30
2018-08-25T21:27:55.199Z,144.83
2018-08-25T21:30:25.807Z,147.45
2018-08-25T21:32:55.506Z,83.62
2018-08-25T21:35:25.057Z,80.13
2018-08-25T21:37:55.570Z,76.47
2018-08-25T21:40:25.286Z,66.45
2018-08-25T21:42:54.669Z,60.57
2018-08-25T21:45:24.316Z,73.95
2018-08-25T21:47:53.898Z,79.85
2018-08-25T21:50:23.408Z,69.37
2018-08-25T21:52:53.695Z,56.03
2018-08-25T21:55:23.256Z,71.57
2018-08-25T21:57:52.873Z,85.37
2018-08-25T22:00:22.540Z,69.70
2018-08-25T22:02:52.084Z,64.28
2018-08-25T22:05:22.191Z,64.67
2018-08-25T22:07:51.550Z,69.80
2018-08-25T22:10:21.056Z,61.55
2018-08-25T22:12:51.443Z,67.30
2018-08-25T22:15:29.857Z,65.60
2018-08-25T22:17:59.365Z,67.20
2018-08-25T22:20:29.239Z,70.57
2018-08-25T22:22:59.121Z,76.33
2018-08-25T22:25:28.419Z,63.47
2018-08-25T22:27:57.974Z,68.90
2018-08-25T22:30:28.491Z,79.87
2018-08-25T22:32:59.250Z,70.33
2018-08-25T22:35:29.677Z,72.90
2018-08-25T22:37:59.084Z,68.97
2018-08-25T22:40:29.891Z,63.72
2018-08-25T22:42:59.416Z,63.23
2018-08-25T22:45:29.562Z,74.13
2018-08-25T22:47:58.972Z,66.67
2018-08-25T22:50:28.601Z,62.13
2018-08-25T22:52:58.776Z,66.15
2018-08-25T22:55:28.646Z,65.43
2018-08-25T22:57:58.397Z,61.75
2018-08-25T23:00:29.036Z,68.87
2018-08-25T23:02:58.704Z,64.62
2018-08-25T23:05:28.413Z,63.65
2018-08-25T23:07:58.017Z,74.87
2018-08-25T23:10:28.521Z,68.50
2018-08-25T23:12:59.003Z,75.28
2018-08-25T23:15:29.953Z,71.12
2018-08-25T23:18:00.476Z,65.83
2018-08-25T23:20:30.787Z,66.57
2018-08-25T23:23:00.863Z,67.25
2018-08-25T23:25:31.596Z,67.37
2018-08-25T23:28:01.250Z,92.35
2018-08-25T23:30:30.897Z,68.60
2018-08-25T23:33:00.233Z,65.87
2018-08-25T23:35:30.883Z,68.53
2018-08-25T23:38:00.800Z,67.75
2018-08-25T23:40:32.005Z,58.08
2018-08-25T23:43:01.982Z,60.40
2018-08-25T23:45:31.904Z,58.23
2018-08-25T23:48:02.415Z,52.95
2018-08-25T23:50:31.803Z,48.45
2018-08-25T23:53:00.929Z,57.45
2018-08-25T23:55:30.405Z,54.55
2018-08-25T23:58:00.200Z,49.90
